Startpagina
METAR-TAF:

METAR-TAF

Vliegvelden :

Meeker Airport

Meeker, Colorado, Verenigde Staten

breedte: 40-02-32N, lengte: 107-53-23W, hoogte: 1948 m

Actueel weer

Dit bericht is 41 minuten geleden gemaakt, om 18:53 UTC
Wind 12 kt uit het zuidwesten met uitschieters tot 21 kt
Temperatuur 23°C
Vochtigheid 19%
Druk 1021 hPa
Zicht: 16.1 km
Weinig wolken op 12000 ft

METAR: KEEO 191853Z AUTO 23012G21KT 10SM FEW120 23/M02 A3015 RMK AO2 SLP126 T02281017

Tijdstip: 13:34 (19:34 UTC)


TAF: ontbreekt

Waarnemingen en weersverwachtingen van meer dan 4000 vliegvelden (METAR en TAF).

De beschikbare stations zijn de gele en rode punten op de kaart.

Ga met uw muis naar het station om de naam te zien.

Klik dan om waarnemingen en weersverwachtingen te zien.

kaart wijzigen: klik op de groene knoppen met een zwart kruis om in te zoomen, op de groene knop met een streepje om uit te zoomen of op de groene pijlen voor aangrenzende kaarten.


METAR-TAF: